FMEP/ZSE METAR and TAF weather

Enter ICAO airport designator
Station Type Date Time Source
FMEP METAR 2021/10/24 22:30 UTC NOAA

FMEP 242230Z AUTO 04004KT 9999 BKN030 OVC042 23/18 Q1020


Station Type Date Time Source
FMEP Decoded METAR 2021/10/24 22:30 UTC NOAA

Saint-Pierre, Reunion (FMEP) 21-20S 055-29E 53M
Oct 24, 2021 - 06:30 PM EDT / 2021.10.24 2230 UTC
Wind: from the NE (040 degrees) at 5 MPH (4 KT):0
Visibility: greater than 7 mile(s):0
Sky conditions: overcast
Temperature: 73 F (23 C)
Dew Point: 64 F (18 C)
Relative Humidity: 73%
Pressure (altimeter): 30.12 in. Hg (1020 hPa)
ob: FMEP 242230Z AUTO 04004KT 9999 BKN030 OVC042 23/18 Q1020
cycle: 22

Station Type Date Time Source
FMEP TAF 2020/08/08 06:00 UTC NOAA

TAF FMEP 080500Z 0806/0815 27010KT 9999 FEW030

Example: see airport list